Aeroporto :
LOGIN :

Iscrizione | Disclaimer

   EN    FR    IT 

 










Sommario :    VFR   VFR Marginale   IFR   IFR Intensivo   IFR Molto Intensivo
Visibilità : 
Base nubi : 
>= 8 km
>= 3000ft
5 / 8 km
1000 / 3000 ft
1500m / 5 km
500 / 1000 ft
800 / 1500m
200 / 500 ft
< 800m
< 200 ft
Simboli :   Temporali  Nebbia  Neve Forte  Precipitazioni Forti  Vento > 20 kt
SIGMETs :   Varie  Temporali  Ghiacco  Turbolenza  Onda orograficha  Ceneri Vulcaniche






- Altitudine del aeroporto : 1768 ft


LEHC - Huesca Pirineos

ULTIMO METAR :
  • 171300Z 27013KT 240V300 9999 BKN068 09/05 Q1008

METARs OBSOLETI :
  • 171230Z 26013KT 220V320 9999 FEW050 SCT060 08/05 Q1008
  • 171200Z 27013KT 230V300 9999 SCT050 08/05 Q1008
  • 171130Z 26013KT 230V290 9999 SCT045 08/04 Q1009
  • 171100Z 25012KT 230V290 9999 SCT040 08/04 Q1009
  • 171030Z 26011KT 230V290 9999 SCT040 06/04 Q1010

TAF TAF LEHC
Valido dal 17 a 09 ore il 18 a 09 ore UTC


170800Z 1709/1809 28009KT 9999 SCT030 TX11/1713Z TN01/1806Z
PROB40
TEMPO 1718/1723 RA BKN040
BECMG 1717/1719 30005KT



MetMap, La meteo Aeronautica in un colpo d'occhio ! - Copyright ORBIFLY Dicembre 2007 - Disclaimer

ORBIFLY MET'MAP TEAM :

Programmazione e sviluppo : Alexandra Zaïnal
Concezione e sviluppo : Baudouin d'Aumeries
Co-Programmazione e sviluppo : Marc-Olivier Méhu
Supporto tecnico e logistico : Manuel Goepfert
Aiuto per la traduzione : Arnaldo La Scala

Contatto : metmap@orbifly.com




FONTI E CREDITI :

   NOAA